sensor_id;sensor_type;location;lat;lon;timestamp;pressure;altitude;pressure_sealevel;temperature
15845;BMP180;50807;52.436;13.346;2022-10-19T00:00:13;102099.00;;;16.10
15845;BMP180;50807;52.436;13.346;2022-10-19T00:00:44;102092.00;;;16.10
15845;BMP180;50807;52.436;13.346;2022-10-19T00:01:17;102099.00;;;16.10
15845;BMP180;50807;52.436;13.346;2022-10-19T00:01:49;102101.00;;;16.10
15845;BMP180;50807;52.436;13.346;2022-10-19T00:02:20;102099.00;;;16.10
15845;BMP180;50807;52.436;13.346;2022-10-19T00:02:51;102106.00;;;16.10
15845;BMP180;50807;52.436;13.346;2022-10-19T00:03:21;102101.00;;;16.10
15845;BMP180;50807;52.436;13.346;2022-10-19T00:03:55;102110.00;;;16.10
15845;BMP180;50807;52.436;13.346;2022-10-19T00:04:26;102096.00;;;16.10
15845;BMP180;50807;52.436;13.346;2022-10-19T00:04:58;102102.00;;;16.10
15845;BMP180;50807;52.436;13.346;2022-10-19T00:05:29;102099.00;;;16.20
15845;BMP180;50807;52.436;13.346;2022-10-19T00:06:08;102098.00;;;16.20
15845;BMP180;50807;52.436;13.346;2022-10-19T00:06:40;102096.00;;;16.10
15845;BMP180;50807;52.436;13.346;2022-10-19T00:07:11;102095.00;;;16.20
15845;BMP180;50807;52.436;13.346;2022-10-19T00:07:41;102094.00;;;16.20
15845;BMP180;50807;52.436;13.346;2022-10-19T00:08:13;102093.00;;;16.20
15845;BMP180;50807;52.436;13.346;2022-10-19T00:08:44;102096.00;;;16.20
15845;BMP180;50807;52.436;13.346;2022-10-19T00:09:17;102103.00;;;16.20
15845;BMP180;50807;52.436;13.346;2022-10-19T00:09:49;102099.00;;;16.20
15845;BMP180;50807;52.436;13.346;2022-10-19T00:10:20;102101.00;;;16.20
15845;BMP180;50807;52.436;13.346;2022-10-19T00:10:51;102105.00;;;16.20
15845;BMP180;50807;52.436;13.346;2022-10-19T00:11:24;102103.00;;;16.20
15845;BMP180;50807;52.436;13.346;2022-10-19T00:11:55;102115.00;;;16.20
15845;BMP180;50807;52.436;13.346;2022-10-19T00:12:27;102097.00;;;16.20
15845;BMP180;50807;52.436;13.346;2022-10-19T00:12:59;102095.00;;;16.20
15845;BMP180;50807;52.436;13.346;2022-10-19T00:13:30;102104.00;;;16.20
15845;BMP180;50807;52.436;13.346;2022-10-19T00:14:01;102105.00;;;16.20
15845;BMP180;50807;52.436;13.346;2022-10-19T00:14:33;102096.00;;;16.30
15845;BMP180;50807;52.436;13.346;2022-10-19T00:15:05;102104.00;;;16.30
15845;BMP180;50807;52.436;13.346;2022-10-19T00:15:38;102087.00;;;16.20
15845;BMP180;50807;52.436;13.346;2022-10-19T00:16:13;102094.00;;;16.20
15845;BMP180;50807;52.436;13.346;2022-10-19T00:16:46;102100.00;;;16.20
15845;BMP180;50807;52.436;13.346;2022-10-19T00:17:18;102094.00;;;16.20
15845;BMP180;50807;52.436;13.346;2022-10-19T00:17:49;102094.00;;;16.20
15845;BMP180;50807;52.436;13.346;2022-10-19T00:18:20;102098.00;;;16.20
15845;BMP180;50807;52.436;13.346;2022-10-19T00:18:51;102089.00;;;16.30
15845;BMP180;50807;52.436;13.346;2022-10-19T00:19:25;102098.00;;;16.30
15845;BMP180;50807;52.436;13.346;2022-10-19T00:19:56;102097.00;;;16.30
15845;BMP180;50807;52.436;13.346;2022-10-19T00:20:27;102106.00;;;16.30
15845;BMP180;50807;52.436;13.346;2022-10-19T00:21:03;102094.00;;;16.20
15845;BMP180;50807;52.436;13.346;2022-10-19T00:21:35;102091.00;;;16.30
15845;BMP180;50807;52.436;13.346;2022-10-19T00:22:05;102098.00;;;16.30
15845;BMP180;50807;52.436;13.346;2022-10-19T00:22:37;102107.00;;;16.30
15845;BMP180;50807;52.436;13.346;2022-10-19T00:23:08;102103.00;;;16.30
15845;BMP180;50807;52.436;13.346;2022-10-19T00:23:39;102101.00;;;16.30
15845;BMP180;50807;52.436;13.346;2022-10-19T00:24:10;102097.00;;;16.30
15845;BMP180;50807;52.436;13.346;2022-10-19T00:24:42;102102.00;;;16.30
15845;BMP180;50807;52.436;13.346;2022-10-19T00:25:13;102095.00;;;16.30
15845;BMP180;50807;52.436;13.346;2022-10-19T00:25:54;102100.00;;;16.20
15845;BMP180;50807;52.436;13.346;2022-10-19T00:26:25;102096.00;;;16.30
15845;BMP180;50807;52.436;13.346;2022-10-19T00:26:57;102098.00;;;16.30
15845;BMP180;50807;52.436;13.346;2022-10-19T00:27:29;102097.00;;;16.30
15845;BMP180;50807;52.436;13.346;2022-10-19T00:28:00;102097.00;;;16.40
15845;BMP180;50807;52.436;13.346;2022-10-19T00:28:32;102095.00;;;16.30
15845;BMP180;50807;52.436;13.346;2022-10-19T00:29:04;102102.00;;;16.40
15845;BMP180;50807;52.436;13.346;2022-10-19T00:29:35;102084.00;;;16.30
15845;BMP180;50807;52.436;13.346;2022-10-19T00:30:07;102101.00;;;16.30
15845;BMP180;50807;52.436;13.346;2022-10-19T00:30:39;102098.00;;;16.30
15845;BMP180;50807;52.436;13.346;2022-10-19T00:31:14;102098.00;;;16.30
15845;BMP180;50807;52.436;13.346;2022-10-19T00:31:45;102102.00;;;16.30
15845;BMP180;50807;52.436;13.346;2022-10-19T00:32:19;102095.00;;;16.30
15845;BMP180;50807;52.436;13.346;2022-10-19T00:32:49;102094.00;;;16.30
15845;BMP180;50807;52.436;13.346;2022-10-19T00:33:21;102093.00;;;16.30
15845;BMP180;50807;52.436;13.346;2022-10-19T00:33:56;102100.00;;;16.30
15845;BMP180;50807;52.436;13.346;2022-10-19T00:34:27;102095.00;;;16.30
15845;BMP180;50807;52.436;13.346;2022-10-19T00:34:57;102096.00;;;16.30
15845;BMP180;50807;52.436;13.346;2022-10-19T00:35:29;102095.00;;;16.30
15845;BMP180;50807;52.436;13.346;2022-10-19T00:36:00;102100.00;;;16.30
15845;BMP180;50807;52.436;13.346;2022-10-19T00:36:34;102100.00;;;16.30
15845;BMP180;50807;52.436;13.346;2022-10-19T00:37:06;102105.00;;;16.30
15845;BMP180;50807;52.436;13.346;2022-10-19T00:37:37;102107.00;;;16.30
15845;BMP180;50807;52.436;13.346;2022-10-19T00:38:08;102099.00;;;16.30
15845;BMP180;50807;52.436;13.346;2022-10-19T00:38:41;102100.00;;;16.30
15845;BMP180;50807;52.436;13.346;2022-10-19T00:39:14;102096.00;;;16.30
15845;BMP180;50807;52.436;13.346;2022-10-19T00:39:47;102083.00;;;16.30
15845;BMP180;50807;52.436;13.346;2022-10-19T00:40:17;102102.00;;;16.40
15845;BMP180;50807;52.436;13.346;2022-10-19T00:40:49;102094.00;;;16.30
15845;BMP180;50807;52.436;13.346;2022-10-19T00:41:23;102096.00;;;16.30
15845;BMP180;50807;52.436;13.346;2022-10-19T00:41:54;102095.00;;;16.30
15845;BMP180;50807;52.436;13.346;2022-10-19T00:42:24;102092.00;;;16.30
15845;BMP180;50807;52.436;13.346;2022-10-19T00:42:57;102101.00;;;16.30
15845;BMP180;50807;52.436;13.346;2022-10-19T00:43:30;102096.00;;;16.30
15845;BMP180;50807;52.436;13.346;2022-10-19T00:44:04;102098.00;;;16.30
15845;BMP180;50807;52.436;13.346;2022-10-19T00:45:06;102102.00;;;16.10
15845;BMP180;50807;52.436;13.346;2022-10-19T00:45:37;102098.00;;;16.10
15845;BMP180;50807;52.436;13.346;2022-10-19T00:46:12;102105.00;;;16.10
15845;BMP180;50807;52.436;13.346;2022-10-19T00:46:45;102090.00;;;16.20
15845;BMP180;50807;52.436;13.346;2022-10-19T00:47:22;102100.00;;;16.10
15845;BMP180;50807;52.436;13.346;2022-10-19T00:47:55;102096.00;;;16.20
15845;BMP180;50807;52.436;13.346;2022-10-19T00:48:29;102103.00;;;16.20
15845;BMP180;50807;52.436;13.346;2022-10-19T00:49:06;102103.00;;;16.10
15845;BMP180;50807;52.436;13.346;2022-10-19T00:49:43;102106.00;;;16.10
15845;BMP180;50807;52.436;13.346;2022-10-19T00:50:14;102103.00;;;16.20
15845;BMP180;50807;52.436;13.346;2022-10-19T00:50:47;102094.00;;;16.20
15845;BMP180;50807;52.436;13.346;2022-10-19T00:51:19;102089.00;;;16.20
15845;BMP180;50807;52.436;13.346;2022-10-19T00:51:55;102105.00;;;16.10
15845;BMP180;50807;52.436;13.346;2022-10-19T00:52:27;102100.00;;;16.20
15845;BMP180;50807;52.436;13.346;2022-10-19T00:52:59;102087.00;;;16.20
15845;BMP180;50807;52.436;13.346;2022-10-19T00:53:30;102093.00;;;16.20
15845;BMP180;50807;52.436;13.346;2022-10-19T00:54:04;102094.00;;;16.20
15845;BMP180;50807;52.436;13.346;2022-10-19T00:54:40;102099.00;;;16.20
15845;BMP180;50807;52.436;13.346;2022-10-19T00:55:12;102093.00;;;16.20
15845;BMP180;50807;52.436;13.346;2022-10-19T00:55:44;102097.00;;;16.20
15845;BMP180;50807;52.436;13.346;2022-10-19T00:56:16;102092.00;;;16.20
15845;BMP180;50807;52.436;13.346;2022-10-19T00:56:51;102090.00;;;16.20
15845;BMP180;50807;52.436;13.346;2022-10-19T00:57:25;102095.00;;;16.20
15845;BMP180;50807;52.436;13.346;2022-10-19T00:58:01;102100.00;;;16.20
15845;BMP180;50807;52.436;13.346;2022-10-19T00:58:34;102100.00;;;16.20
15845;BMP180;50807;52.436;13.346;2022-10-19T00:59:07;102100.00;;;16.20
15845;BMP180;50807;52.436;13.346;2022-10-19T00:59:40;102091.00;;;16.20
15845;BMP180;50807;52.436;13.346;2022-10-19T01:00:13;102093.00;;;16.20
15845;BMP180;50807;52.436;13.346;2022-10-19T01:00:45;102095.00;;;16.20
15845;BMP180;50807;52.436;13.346;2022-10-19T01:01:21;102105.00;;;16.20
15845;BMP180;50807;52.436;13.346;2022-10-19T01:01:53;102100.00;;;16.20
15845;BMP180;50807;52.436;13.346;2022-10-19T01:02:25;102106.00;;;16.20
15845;BMP180;50807;52.436;13.346;2022-10-19T01:02:56;102096.00;;;16.30
15845;BMP180;50807;52.436;13.346;2022-10-19T01:03:28;102108.00;;;16.30
15845;BMP180;50807;52.436;13.346;2022-10-19T01:04:01;102099.00;;;16.30
15845;BMP180;50807;52.436;13.346;2022-10-19T01:04:37;102106.00;;;16.20
15845;BMP180;50807;52.436;13.346;2022-10-19T01:05:09;102104.00;;;16.20
15845;BMP180;50807;52.436;13.346;2022-10-19T01:05:42;102110.00;;;16.30
15845;BMP180;50807;52.436;13.346;2022-10-19T01:06:14;102092.00;;;16.30
15845;BMP180;50807;52.436;13.346;2022-10-19T01:06:46;102105.00;;;16.30
15845;BMP180;50807;52.436;13.346;2022-10-19T01:07:19;102087.00;;;16.30
15845;BMP180;50807;52.436;13.346;2022-10-19T01:07:51;102103.00;;;16.30
15845;BMP180;50807;52.436;13.346;2022-10-19T01:08:22;102093.00;;;16.30
15845;BMP180;50807;52.436;13.346;2022-10-19T01:08:54;102100.00;;;16.30
15845;BMP180;50807;52.436;13.346;2022-10-19T01:09:25;102096.00;;;16.30
15845;BMP180;50807;52.436;13.346;2022-10-19T01:09:56;102092.00;;;16.30
15845;BMP180;50807;52.436;13.346;2022-10-19T01:10:39;102098.00;;;16.20
15845;BMP180;50807;52.436;13.346;2022-10-19T01:11:35;102095.00;;;16.10
15845;BMP180;50807;52.436;13.346;2022-10-19T01:12:22;102102.00;;;16.10
15845;BMP180;50807;52.436;13.346;2022-10-19T01:13:21;102099.00;;;16.00
15845;BMP180;50807;52.436;13.346;2022-10-19T01:14:11;102096.00;;;16.00
15845;BMP180;50807;52.436;13.346;2022-10-19T01:15:02;102096.00;;;16.00
15845;BMP180;50807;52.436;13.346;2022-10-19T01:15:43;102097.00;;;16.10
15845;BMP180;50807;52.436;13.346;2022-10-19T01:16:24;102086.00;;;16.10
15845;BMP180;50807;52.436;13.346;2022-10-19T01:17:10;102095.00;;;16.00
15845;BMP180;50807;52.436;13.346;2022-10-19T01:17:53;102088.00;;;16.10
15845;BMP180;50807;52.436;13.346;2022-10-19T01:18:40;102092.00;;;16.10
15845;BMP180;50807;52.436;13.346;2022-10-19T01:19:43;102099.00;;;16.00
15845;BMP180;50807;52.436;13.346;2022-10-19T01:20:45;102089.00;;;16.00
15845;BMP180;50807;52.436;13.346;2022-10-19T01:21:24;102089.00;;;16.00
15845;BMP180;50807;52.436;13.346;2022-10-19T01:22:18;102096.00;;;16.00
15845;BMP180;50807;52.436;13.346;2022-10-19T01:23:18;102099.00;;;15.90
15845;BMP180;50807;52.436;13.346;2022-10-19T01:24:28;102097.00;;;15.90
15845;BMP180;50807;52.436;13.346;2022-10-19T01:25:19;102097.00;;;15.90
15845;BMP180;50807;52.436;13.346;2022-10-19T01:26:05;102093.00;;;15.90
15845;BMP180;50807;52.436;13.346;2022-10-19T01:27:26;102093.00;;;15.90
15845;BMP180;50807;52.436;13.346;2022-10-19T01:28:22;102089.00;;;15.90
15845;BMP180;50807;52.436;13.346;2022-10-19T01:29:08;102081.00;;;15.90
15845;BMP180;50807;52.436;13.346;2022-10-19T01:29:59;102089.00;;;15.90
15845;BMP180;50807;52.436;13.346;2022-10-19T01:30:45;102084.00;;;15.90
15845;BMP180;50807;52.436;13.346;2022-10-19T01:31:26;102080.00;;;16.00
15845;BMP180;50807;52.436;13.346;2022-10-19T01:32:06;102076.00;;;16.00
15845;BMP180;50807;52.436;13.346;2022-10-19T01:32:53;102090.00;;;16.00
15845;BMP180;50807;52.436;13.346;2022-10-19T01:33:39;102081.00;;;16.00
15845;BMP180;50807;52.436;13.346;2022-10-19T01:34:19;102082.00;;;16.00
15845;BMP180;50807;52.436;13.346;2022-10-19T01:35:04;102073.00;;;16.00
15845;BMP180;50807;52.436;13.346;2022-10-19T01:35:44;102078.00;;;16.00
15845;BMP180;50807;52.436;13.346;2022-10-19T01:36:25;102073.00;;;16.00
15845;BMP180;50807;52.436;13.346;2022-10-19T01:37:07;102083.00;;;16.00
15845;BMP180;50807;52.436;13.346;2022-10-19T01:37:47;102085.00;;;16.00
15845;BMP180;50807;52.436;13.346;2022-10-19T01:38:27;102083.00;;;16.00
15845;BMP180;50807;52.436;13.346;2022-10-19T01:39:08;102083.00;;;16.00
15845;BMP180;50807;52.436;13.346;2022-10-19T01:39:47;102076.00;;;16.00
15845;BMP180;50807;52.436;13.346;2022-10-19T01:40:30;102068.00;;;16.00
15845;BMP180;50807;52.436;13.346;2022-10-19T01:41:15;102078.00;;;16.00
15845;BMP180;50807;52.436;13.346;2022-10-19T01:41:57;102077.00;;;16.00
15845;BMP180;50807;52.436;13.346;2022-10-19T01:42:37;102075.00;;;16.00
15845;BMP180;50807;52.436;13.346;2022-10-19T01:43:26;102072.00;;;15.90
15845;BMP180;50807;52.436;13.346;2022-10-19T01:44:08;102078.00;;;15.90
15845;BMP180;50807;52.436;13.346;2022-10-19T01:44:49;102077.00;;;15.90
15845;BMP180;50807;52.436;13.346;2022-10-19T01:45:30;102076.00;;;15.90
15845;BMP180;50807;52.436;13.346;2022-10-19T01:46:11;102076.00;;;15.90
15845;BMP180;50807;52.436;13.346;2022-10-19T01:46:50;102083.00;;;15.90
15845;BMP180;50807;52.436;13.346;2022-10-19T01:47:28;102077.00;;;16.00
15845;BMP180;50807;52.436;13.346;2022-10-19T01:48:06;102070.00;;;16.00
15845;BMP180;50807;52.436;13.346;2022-10-19T01:48:44;102076.00;;;16.00
15845;BMP180;50807;52.436;13.346;2022-10-19T01:49:26;102081.00;;;16.00
15845;BMP180;50807;52.436;13.346;2022-10-19T01:50:06;102075.00;;;16.00
15845;BMP180;50807;52.436;13.346;2022-10-19T01:50:46;102077.00;;;16.00
15845;BMP180;50807;52.436;13.346;2022-10-19T01:51:22;102071.00;;;16.00
15845;BMP180;50807;52.436;13.346;2022-10-19T01:52:00;102077.00;;;16.00
15845;BMP180;50807;52.436;13.346;2022-10-19T01:52:35;102076.00;;;16.00
15845;BMP180;50807;52.436;13.346;2022-10-19T01:53:11;102080.00;;;16.00
15845;BMP180;50807;52.436;13.346;2022-10-19T01:53:50;102074.00;;;16.00
15845;BMP180;50807;52.436;13.346;2022-10-19T01:54:24;102064.00;;;16.00
15845;BMP180;50807;52.436;13.346;2022-10-19T01:55:00;102076.00;;;16.00
15845;BMP180;50807;52.436;13.346;2022-10-19T01:55:36;102073.00;;;16.00
15845;BMP180;50807;52.436;13.346;2022-10-19T01:56:11;102067.00;;;16.00
15845;BMP180;50807;52.436;13.346;2022-10-19T01:56:45;102073.00;;;16.00
15845;BMP180;50807;52.436;13.346;2022-10-19T01:57:23;102077.00;;;16.00
15845;BMP180;50807;52.436;13.346;2022-10-19T01:58:04;102070.00;;;16.00
15845;BMP180;50807;52.436;13.346;2022-10-19T01:58:38;102074.00;;;16.00
15845;BMP180;50807;52.436;13.346;2022-10-19T01:59:11;102074.00;;;16.00
15845;BMP180;50807;52.436;13.346;2022-10-19T01:59:47;102066.00;;;16.00
15845;BMP180;50807;52.436;13.346;2022-10-19T02:00:23;102072.00;;;16.00
15845;BMP180;50807;52.436;13.346;2022-10-19T02:00:59;102070.00;;;16.00
15845;BMP180;50807;52.436;13.346;2022-10-19T02:01:37;102072.00;;;16.00
15845;BMP180;50807;52.436;13.346;2022-10-19T02:02:11;102063.00;;;16.00
15845;BMP180;50807;52.436;13.346;2022-10-19T02:02:49;102069.00;;;16.00
15845;BMP180;50807;52.436;13.346;2022-10-19T02:03:22;102056.00;;;16.00
15845;BMP180;50807;52.436;13.346;2022-10-19T02:03:55;102074.00;;;16.00
15845;BMP180;50807;52.436;13.346;2022-10-19T02:04:29;102068.00;;;16.00
15845;BMP180;50807;52.436;13.346;2022-10-19T02:05:01;102064.00;;;16.00
15845;BMP180;50807;52.436;13.346;2022-10-19T02:05:37;102074.00;;;16.00
15845;BMP180;50807;52.436;13.346;2022-10-19T02:06:11;102070.00;;;16.00
15845;BMP180;50807;52.436;13.346;2022-10-19T02:06:43;102059.00;;;16.00
15845;BMP180;50807;52.436;13.346;2022-10-19T02:07:16;102057.00;;;16.00
15845;BMP180;50807;52.436;13.346;2022-10-19T02:07:58;102060.00;;;16.00
15845;BMP180;50807;52.436;13.346;2022-10-19T02:08:36;102059.00;;;15.90
15845;BMP180;50807;52.436;13.346;2022-10-19T02:09:09;102063.00;;;16.00
15845;BMP180;50807;52.436;13.346;2022-10-19T02:09:47;102066.00;;;16.00
15845;BMP180;50807;52.436;13.346;2022-10-19T02:10:19;102058.00;;;16.00
15845;BMP180;50807;52.436;13.346;2022-10-19T02:10:51;102062.00;;;16.00
15845;BMP180;50807;52.436;13.346;2022-10-19T02:11:23;102062.00;;;16.00
15845;BMP180;50807;52.436;13.346;2022-10-19T02:12:00;102064.00;;;16.00
15845;BMP180;50807;52.436;13.346;2022-10-19T02:12:34;102062.00;;;16.00
15845;BMP180;50807;52.436;13.346;2022-10-19T02:13:07;102042.00;;;16.00
15845;BMP180;50807;52.436;13.346;2022-10-19T02:13:40;102068.00;;;16.00
15845;BMP180;50807;52.436;13.346;2022-10-19T02:14:15;102056.00;;;15.90
15845;BMP180;50807;52.436;13.346;2022-10-19T02:14:53;102068.00;;;15.90
15845;BMP180;50807;52.436;13.346;2022-10-19T02:15:29;102059.00;;;15.90
15845;BMP180;50807;52.436;13.346;2022-10-19T02:16:08;102063.00;;;15.90
15845;BMP180;50807;52.436;13.346;2022-10-19T02:16:48;102062.00;;;15.90
15845;BMP180;50807;52.436;13.346;2022-10-19T02:17:25;102057.00;;;15.90
15845;BMP180;50807;52.436;13.346;2022-10-19T02:17:59;102062.00;;;16.00
15845;BMP180;50807;52.436;13.346;2022-10-19T02:18:36;102051.00;;;15.90
15845;BMP180;50807;52.436;13.346;2022-10-19T02:19:12;102058.00;;;15.90
15845;BMP180;50807;52.436;13.346;2022-10-19T02:19:44;102057.00;;;16.00
15845;BMP180;50807;52.436;13.346;2022-10-19T02:20:17;102058.00;;;16.00
15845;BMP180;50807;52.436;13.346;2022-10-19T02:20:49;102063.00;;;16.00
15845;BMP180;50807;52.436;13.346;2022-10-19T02:21:20;102060.00;;;16.00
15845;BMP180;50807;52.436;13.346;2022-10-19T02:21:51;102054.00;;;16.00
15845;BMP180;50807;52.436;13.346;2022-10-19T02:22:23;102057.00;;;16.00
15845;BMP180;50807;52.436;13.346;2022-10-19T02:22:55;102062.00;;;16.10
15845;BMP180;50807;52.436;13.346;2022-10-19T02:23:26;102060.00;;;16.10
15845;BMP180;50807;52.436;13.346;2022-10-19T02:23:57;102050.00;;;16.10
15845;BMP180;50807;52.436;13.346;2022-10-19T02:24:29;102054.00;;;16.10
15845;BMP180;50807;52.436;13.346;2022-10-19T02:25:00;102049.00;;;16.10
15845;BMP180;50807;52.436;13.346;2022-10-19T02:25:32;102061.00;;;16.10
15845;BMP180;50807;52.436;13.346;2022-10-19T02:26:05;102053.00;;;16.10
15845;BMP180;50807;52.436;13.346;2022-10-19T02:26:36;102060.00;;;16.10
15845;BMP180;50807;52.436;13.346;2022-10-19T02:27:08;102054.00;;;16.10
15845;BMP180;50807;52.436;13.346;2022-10-19T02:27:41;102052.00;;;16.10
15845;BMP180;50807;52.436;13.346;2022-10-19T02:28:12;102048.00;;;16.10
15845;BMP180;50807;52.436;13.346;2022-10-19T02:28:44;102051.00;;;16.10
15845;BMP180;50807;52.436;13.346;2022-10-19T02:29:16;102051.00;;;16.10
15845;BMP180;50807;52.436;13.346;2022-10-19T02:29:47;102052.00;;;16.10
15845;BMP180;50807;52.436;13.346;2022-10-19T02:30:19;102048.00;;;16.10
15845;BMP180;50807;52.436;13.346;2022-10-19T02:30:53;102054.00;;;16.10
15845;BMP180;50807;52.436;13.346;2022-10-19T02:31:25;102052.00;;;16.10
15845;BMP180;50807;52.436;13.346;2022-10-19T02:31:56;102053.00;;;16.10
15845;BMP180;50807;52.436;13.346;2022-10-19T02:32:27;102056.00;;;16.10
15845;BMP180;50807;52.436;13.346;2022-10-19T02:32:58;102057.00;;;16.10
15845;BMP180;50807;52.436;13.346;2022-10-19T02:33:30;102053.00;;;16.10
15845;BMP180;50807;52.436;13.346;2022-10-19T02:34:01;102056.00;;;16.10
15845;BMP180;50807;52.436;13.346;2022-10-19T02:34:35;102054.00;;;16.10
15845;BMP180;50807;52.436;13.346;2022-10-19T02:35:07;102061.00;;;16.10
15845;BMP180;50807;52.436;13.346;2022-10-19T02:35:38;102057.00;;;16.10
15845;BMP180;50807;52.436;13.346;2022-10-19T02:36:10;102064.00;;;16.10
15845;BMP180;50807;52.436;13.346;2022-10-19T02:36:41;102056.00;;;16.10
15845;BMP180;50807;52.436;13.346;2022-10-19T02:37:12;102062.00;;;16.10
15845;BMP180;50807;52.436;13.346;2022-10-19T02:37:44;102060.00;;;16.10
15845;BMP180;50807;52.436;13.346;2022-10-19T02:38:19;102053.00;;;16.10
15845;BMP180;50807;52.436;13.346;2022-10-19T02:38:51;102056.00;;;16.10
15845;BMP180;50807;52.436;13.346;2022-10-19T02:39:23;102060.00;;;16.10
15845;BMP180;50807;52.436;13.346;2022-10-19T02:39:54;102039.00;;;16.10
15845;BMP180;50807;52.436;13.346;2022-10-19T02:40:26;102069.00;;;16.10
15845;BMP180;50807;52.436;13.346;2022-10-19T02:41:06;102055.00;;;16.00
15845;BMP180;50807;52.436;13.346;2022-10-19T02:41:44;102058.00;;;16.00
15845;BMP180;50807;52.436;13.346;2022-10-19T02:42:24;102072.00;;;16.00
15845;BMP180;50807;52.436;13.346;2022-10-19T02:43:03;102069.00;;;15.90
15845;BMP180;50807;52.436;13.346;2022-10-19T02:43:40;102061.00;;;16.00
15845;BMP180;50807;52.436;13.346;2022-10-19T02:44:21;102062.00;;;16.00
15845;BMP180;50807;52.436;13.346;2022-10-19T02:44:59;102065.00;;;16.00
15845;BMP180;50807;52.436;13.346;2022-10-19T02:45:37;102063.00;;;16.00
15845;BMP180;50807;52.436;13.346;2022-10-19T02:46:18;102068.00;;;16.00
15845;BMP180;50807;52.436;13.346;2022-10-19T02:46:57;102058.00;;;16.00
15845;BMP180;50807;52.436;13.346;2022-10-19T02:47:35;102061.00;;;16.00
15845;BMP180;50807;52.436;13.346;2022-10-19T02:48:12;102055.00;;;16.00
15845;BMP180;50807;52.436;13.346;2022-10-19T02:48:49;102062.00;;;16.00
15845;BMP180;50807;52.436;13.346;2022-10-19T02:49:21;102051.00;;;16.10
15845;BMP180;50807;52.436;13.346;2022-10-19T02:49:53;102057.00;;;16.10
15845;BMP180;50807;52.436;13.346;2022-10-19T02:50:24;102046.00;;;16.10
15845;BMP180;50807;52.436;13.346;2022-10-19T02:50:54;102057.00;;;16.10
15845;BMP180;50807;52.436;13.346;2022-10-19T02:51:32;102057.00;;;16.10
15845;BMP180;50807;52.436;13.346;2022-10-19T02:52:07;102046.00;;;16.00
15845;BMP180;50807;52.436;13.346;2022-10-19T02:52:39;102053.00;;;16.10
15845;BMP180;50807;52.436;13.346;2022-10-19T02:53:10;102056.00;;;16.10
15845;BMP180;50807;52.436;13.346;2022-10-19T02:53:42;102055.00;;;16.10
15845;BMP180;50807;52.436;13.346;2022-10-19T02:54:12;102049.00;;;16.10
15845;BMP180;50807;52.436;13.346;2022-10-19T02:54:44;102059.00;;;16.10
15845;BMP180;50807;52.436;13.346;2022-10-19T02:55:15;102058.00;;;16.20
15845;BMP180;50807;52.436;13.346;2022-10-19T02:55:48;102054.00;;;16.20
15845;BMP180;50807;52.436;13.346;2022-10-19T02:56:20;102059.00;;;16.20
15845;BMP180;50807;52.436;13.346;2022-10-19T02:56:50;102056.00;;;16.20
15845;BMP180;50807;52.436;13.346;2022-10-19T02:57:24;102061.00;;;16.20
15845;BMP180;50807;52.436;13.346;2022-10-19T02:57:54;102056.00;;;16.20
15845;BMP180;50807;52.436;13.346;2022-10-19T02:58:26;102065.00;;;16.20
15845;BMP180;50807;52.436;13.346;2022-10-19T02:58:57;102057.00;;;16.20
15845;BMP180;50807;52.436;13.346;2022-10-19T02:59:28;102055.00;;;16.20
15845;BMP180;50807;52.436;13.346;2022-10-19T03:00:00;102060.00;;;16.20
15845;BMP180;50807;52.436;13.346;2022-10-19T03:00:31;102053.00;;;16.20
15845;BMP180;50807;52.436;13.346;2022-10-19T03:01:01;102065.00;;;16.20
15845;BMP180;50807;52.436;13.346;2022-10-19T03:01:34;102058.00;;;16.20
15845;BMP180;50807;52.436;13.346;2022-10-19T03:02:05;102057.00;;;16.20
15845;BMP180;50807;52.436;13.346;2022-10-19T03:02:36;102057.00;;;16.20
15845;BMP180;50807;52.436;13.346;2022-10-19T03:03:08;102064.00;;;16.20
15845;BMP180;50807;52.436;13.346;2022-10-19T03:03:39;102058.00;;;16.20
15845;BMP180;50807;52.436;13.346;2022-10-19T03:04:10;102061.00;;;16.20
15845;BMP180;50807;52.436;13.346;2022-10-19T03:04:42;102054.00;;;16.20
15845;BMP180;50807;52.436;13.346;2022-10-19T03:05:14;102060.00;;;16.20
15845;BMP180;50807;52.436;13.346;2022-10-19T03:05:45;102052.00;;;16.20
15845;BMP180;50807;52.436;13.346;2022-10-19T03:06:17;102049.00;;;16.20
15845;BMP180;50807;52.436;13.346;2022-10-19T03:06:47;102055.00;;;16.20
15845;BMP180;50807;52.436;13.346;2022-10-19T03:07:20;102058.00;;;16.20
15845;BMP180;50807;52.436;13.346;2022-10-19T03:07:51;102061.00;;;16.20
15845;BMP180;50807;52.436;13.346;2022-10-19T03:08:22;102057.00;;;16.20
15845;BMP180;50807;52.436;13.346;2022-10-19T03:08:53;102052.00;;;16.20
15845;BMP180;50807;52.436;13.346;2022-10-19T03:09:25;102055.00;;;16.20
15845;BMP180;50807;52.436;13.346;2022-10-19T03:09:56;102064.00;;;16.20
15845;BMP180;50807;52.436;13.346;2022-10-19T03:10:28;102060.00;;;16.20
15845;BMP180;50807;52.436;13.346;2022-10-19T03:10:59;102060.00;;;16.20
15845;BMP180;50807;52.436;13.346;2022-10-19T03:11:30;102066.00;;;16.20
15845;BMP180;50807;52.436;13.346;2022-10-19T03:12:02;102066.00;;;16.20
15845;BMP180;50807;52.436;13.346;2022-10-19T03:12:33;102064.00;;;16.20
15845;BMP180;50807;52.436;13.346;2022-10-19T03:13:03;102061.00;;;16.20
15845;BMP180;50807;52.436;13.346;2022-10-19T03:13:35;102061.00;;;16.20
15845;BMP180;50807;52.436;13.346;2022-10-19T03:14:06;102070.00;;;16.20
15845;BMP180;50807;52.436;13.346;2022-10-19T03:14:37;102057.00;;;16.20
15845;BMP180;50807;52.436;13.346;2022-10-19T03:15:13;102065.00;;;16.20
15845;BMP180;50807;52.436;13.346;2022-10-19T03:15:44;102063.00;;;16.20
15845;BMP180;50807;52.436;13.346;2022-10-19T03:16:15;102063.00;;;16.20
15845;BMP180;50807;52.436;13.346;2022-10-19T03:16:48;102066.00;;;16.20